createdAt,value
2023-02-22T07:41:59.790Z,230.48
2023-02-22T07:44:29.214Z,267.73
2023-02-22T07:46:55.941Z,263.67
2023-02-22T07:49:22.813Z,297.75
2023-02-22T07:51:49.570Z,307.80
2023-02-22T07:54:16.283Z,328.95
2023-02-22T07:56:49.366Z,334.95
2023-02-22T07:59:16.668Z,311.17
2023-02-22T08:01:43.430Z,332.83
2023-02-22T08:04:10.186Z,324.63
2023-02-22T08:06:36.935Z,298.85
2023-02-22T08:09:03.719Z,287.95
2023-02-22T08:11:30.458Z,313.48
2023-02-22T08:13:57.155Z,290.48
2023-02-22T08:16:24.275Z,287.85
2023-02-22T08:18:51.003Z,277.92
2023-02-22T08:21:18.167Z,280.17
2023-02-22T08:23:45.098Z,286.90
2023-02-22T08:26:15.651Z,281.75
2023-02-22T08:28:43.141Z,275.25
2023-02-22T08:31:09.904Z,253.60
2023-02-22T08:33:36.745Z,256.20
2023-02-22T08:36:03.838Z,267.05
2023-02-22T08:38:32.671Z,224.77
2023-02-22T08:40:59.701Z,222.63
2023-02-22T08:43:26.487Z,207.00
2023-02-22T08:45:55.076Z,222.18
2023-02-22T08:48:24.128Z,204.95
2023-02-22T08:50:50.972Z,165.55
2023-02-22T08:53:18.304Z,128.27
2023-02-22T08:55:45.690Z,170.75
2023-02-22T08:58:12.808Z,129.18
2023-02-22T09:00:41.143Z,139.55
2023-02-22T09:03:13.173Z,117.97
2023-02-22T09:05:40.744Z,105.93
2023-02-22T09:08:07.548Z,88.63
2023-02-22T09:10:35.708Z,101.70
2023-02-22T09:13:04.098Z,94.40
2023-02-22T09:15:32.017Z,54.88
2023-02-22T09:17:59.481Z,68.60
2023-02-22T09:20:27.423Z,77.95
2023-02-22T09:22:55.047Z,57.35
2023-02-22T09:25:22.555Z,56.15
2023-02-22T09:27:53.391Z,60.00
2023-02-22T09:30:27.098Z,53.65
2023-02-22T09:32:57.983Z,49.15
2023-02-22T09:35:27.567Z,39.47
2023-02-22T09:37:59.687Z,43.33
2023-02-22T09:40:30.477Z,41.58
2023-02-22T09:43:00.448Z,41.40
2023-02-22T09:46:03.715Z,42.08
2023-02-22T09:48:36.942Z,43.08
2023-02-22T09:51:15.288Z,42.78
2023-02-22T09:53:49.796Z,37.95
2023-02-22T09:56:19.955Z,39.50
2023-02-22T09:58:52.277Z,41.00
2023-02-22T10:01:30.036Z,38.05
2023-02-22T10:04:20.078Z,43.15
2023-02-22T10:07:10.398Z,39.67
2023-02-22T10:09:42.629Z,32.83
2023-02-22T10:12:09.592Z,35.20
2023-02-22T10:15:09.985Z,37.47
2023-02-22T10:17:57.370Z,32.03
2023-02-22T10:20:37.313Z,32.22
2023-02-22T10:23:26.403Z,32.78
2023-02-22T10:26:01.522Z,33.05
2023-02-22T10:28:40.013Z,25.98
2023-02-22T10:31:25.208Z,26.08
2023-02-22T10:34:02.310Z,25.25
2023-02-22T10:36:29.650Z,22.40
2023-02-22T10:39:07.804Z,25.55
2023-02-22T10:41:40.968Z,24.55
2023-02-22T10:44:08.432Z,20.73
2023-02-22T10:46:35.401Z,22.67
2023-02-22T10:49:07.416Z,21.58
2023-02-22T10:51:34.673Z,22.98
2023-02-22T10:54:14.066Z,19.67
2023-02-22T10:56:49.822Z,20.77
2023-02-22T10:59:35.658Z,19.65
2023-02-22T11:02:15.571Z,23.15
2023-02-22T11:04:51.561Z,18.25
2023-02-22T11:07:36.867Z,19.45
2023-02-22T11:10:09.523Z,20.40
2023-02-22T11:12:37.744Z,19.73
2023-02-22T11:15:17.126Z,19.35
2023-02-22T11:17:46.846Z,20.98
2023-02-22T11:20:25.560Z,20.30
2023-02-22T11:22:58.252Z,22.33
2023-02-22T11:25:30.283Z,22.42
2023-02-22T11:28:09.408Z,23.92
2023-02-22T11:30:39.283Z,22.20
2023-02-22T11:33:17.139Z,21.33
2023-02-22T11:35:58.268Z,21.52
2023-02-22T11:38:30.966Z,24.30
2023-02-22T11:41:30.288Z,23.10
2023-02-22T11:44:31.438Z,22.05
2023-02-22T11:47:07.163Z,16.95
2023-02-22T11:49:41.639Z,21.42
2023-02-22T11:52:26.148Z,22.50
2023-02-22T11:55:36.244Z,20.90
2023-02-22T11:58:33.673Z,20.50
2023-02-22T12:01:19.183Z,22.85
2023-02-22T12:04:17.118Z,20.15
2023-02-22T12:07:08.395Z,22.33
2023-02-22T12:09:41.676Z,19.52
2023-02-22T12:12:50.316Z,20.80
2023-02-22T12:15:36.844Z,20.85
2023-02-22T12:18:35.910Z,17.90
2023-02-22T12:21:17.076Z,20.80
2023-02-22T12:23:57.724Z,20.17
2023-02-22T12:26:30.568Z,16.77
2023-02-22T12:29:31.229Z,19.52
2023-02-22T12:32:07.870Z,21.35
2023-02-22T12:34:41.498Z,17.02
2023-02-22T12:37:29.108Z,22.45
2023-02-22T12:40:23.641Z,21.38
2023-02-22T12:43:00.068Z,21.55
2023-02-22T12:45:44.088Z,22.75
2023-02-22T12:48:46.534Z,22.63
2023-02-22T12:51:48.846Z,23.02
2023-02-22T12:54:51.451Z,21.02
2023-02-22T12:57:37.375Z,23.45
2023-02-22T13:00:18.443Z,19.58
2023-02-22T13:03:21.233Z,19.50
2023-02-22T13:06:43.790Z,21.35
2023-02-22T13:09:38.979Z,18.73
2023-02-22T13:12:27.901Z,20.90
2023-02-22T13:15:23.824Z,19.90
2023-02-22T13:18:28.968Z,22.40
2023-02-22T13:21:21.406Z,22.13
2023-02-22T13:24:30.755Z,20.20
2023-02-22T13:27:11.798Z,22.35
2023-02-22T13:29:48.023Z,21.83
2023-02-22T13:32:47.056Z,22.00
2023-02-22T13:35:31.741Z,23.52
2023-02-22T13:38:30.972Z,21.65
2023-02-22T13:41:06.354Z,20.10
2023-02-22T13:43:51.399Z,19.63
2023-02-22T13:47:16.443Z,19.98
2023-02-22T13:50:07.452Z,19.85
2023-02-22T13:52:39.198Z,20.98
2023-02-22T13:55:22.939Z,38.20
2023-02-22T13:57:59.051Z,19.73
2023-02-22T14:00:44.371Z,17.95
2023-02-22T14:03:14.145Z,23.27
2023-02-22T14:05:41.677Z,22.35
2023-02-22T14:08:17.726Z,21.42
2023-02-22T14:10:47.447Z,19.70
2023-02-22T14:13:26.709Z,16.33
2023-02-22T14:16:00.269Z,23.98
2023-02-22T14:18:40.556Z,23.73
2023-02-22T14:21:10.452Z,19.92
2023-02-22T14:23:45.806Z,19.42
2023-02-22T14:26:37.219Z,22.90
2023-02-22T14:29:10.478Z,22.35
2023-02-22T14:31:46.445Z,21.42
2023-02-22T14:34:20.100Z,18.67
2023-02-22T14:36:55.383Z,27.25
2023-02-22T14:39:32.810Z,21.55
2023-02-22T14:42:30.397Z,20.63
2023-02-22T14:45:14.743Z,24.75
2023-02-22T14:48:11.781Z,21.33
2023-02-22T14:50:54.113Z,21.33
2023-02-22T14:53:40.583Z,24.38
2023-02-22T14:56:30.322Z,21.13
2023-02-22T14:59:10.936Z,18.52
2023-02-22T15:02:02.194Z,21.02
2023-02-22T15:04:44.326Z,21.48
2023-02-22T15:07:35.653Z,21.55
2023-02-22T15:10:56.133Z,20.63
2023-02-22T15:13:36.089Z,21.65
2023-02-22T15:16:09.183Z,21.00
2023-02-22T15:18:49.909Z,19.50
2023-02-22T15:21:25.215Z,21.35
2023-02-22T15:23:59.643Z,23.33
2023-02-22T15:27:00.689Z,20.98
2023-02-22T15:29:44.488Z,19.88
2023-02-22T15:32:30.435Z,25.08
2023-02-22T15:35:13.328Z,20.80
2023-02-22T15:37:40.435Z,26.35
2023-02-22T15:40:14.632Z,23.60
2023-02-22T15:42:58.360Z,20.63
2023-02-22T15:45:26.279Z,21.63
2023-02-22T15:47:54.907Z,20.50
2023-02-22T15:50:32.297Z,22.30
2023-02-22T15:53:02.085Z,16.08
2023-02-22T15:55:34.109Z,24.45
2023-02-22T15:58:12.559Z,24.67
2023-02-22T16:00:42.530Z,21.67
2023-02-22T16:03:19.228Z,24.30
2023-02-22T16:05:55.537Z,23.60
2023-02-22T16:08:53.753Z,26.00
2023-02-22T16:14:07.465Z,20.77
2023-02-22T16:16:41.626Z,25.33
2023-02-22T16:19:35.692Z,25.27
2023-02-22T16:22:05.161Z,28.85
2023-02-22T16:24:35.438Z,25.67
2023-02-22T16:27:10.997Z,24.30
2023-02-22T16:29:44.197Z,28.15
2023-02-22T16:32:15.437Z,26.77
2023-02-22T16:34:42.337Z,32.30
2023-02-22T16:37:29.711Z,35.00
2023-02-22T16:39:56.785Z,30.20
2023-02-22T16:42:31.832Z,31.55
2023-02-22T16:45:27.029Z,32.80
2023-02-22T16:48:03.657Z,31.77
2023-02-22T16:50:32.995Z,36.10
2023-02-22T16:53:14.330Z,32.10
2023-02-22T16:58:43.913Z,39.25
2023-02-22T17:01:12.827Z,40.22
2023-02-22T17:03:39.613Z,37.85
2023-02-22T17:06:06.602Z,36.55
2023-02-22T17:08:33.292Z,37.47
2023-02-22T17:11:00.722Z,41.55
2023-02-22T17:13:29.212Z,36.13
2023-02-22T17:15:56.888Z,41.85
2023-02-22T17:18:25.211Z,42.40
2023-02-22T17:20:55.065Z,58.78
2023-02-22T17:23:23.237Z,38.13
2023-02-22T17:26:00.332Z,36.17
2023-02-22T17:28:27.428Z,48.53
2023-02-22T17:30:55.975Z,36.75
2023-02-22T17:33:27.464Z,41.63
2023-02-22T17:35:56.112Z,50.50
2023-02-22T17:38:23.303Z,45.83
2023-02-22T17:40:54.710Z,48.85
2023-02-22T17:43:22.414Z,42.35
2023-02-22T17:45:49.634Z,43.17
2023-02-22T17:48:17.897Z,52.85
2023-02-22T17:50:46.984Z,36.90
2023-02-22T17:53:14.162Z,43.17
2023-02-22T17:55:42.478Z,46.75
2023-02-22T17:58:14.549Z,47.50
2023-02-22T18:00:49.697Z,50.30
2023-02-22T18:03:21.774Z,42.47
2023-02-22T18:05:51.131Z,51.33
2023-02-22T18:08:18.417Z,38.80
2023-02-22T18:10:56.358Z,49.35
2023-02-22T18:13:25.296Z,52.70
2023-02-22T18:15:52.465Z,46.30
2023-02-22T18:18:19.790Z,54.92
2023-02-22T18:20:51.371Z,55.08
2023-02-22T18:23:22.286Z,51.63
2023-02-22T18:26:08.975Z,51.35
2023-02-22T18:28:37.856Z,57.53
2023-02-22T18:31:09.709Z,51.03
2023-02-22T18:33:36.591Z,51.70
2023-02-22T18:36:50.563Z,51.65
2023-02-22T18:39:48.801Z,47.67
2023-02-22T18:43:18.569Z,52.60
2023-02-22T18:46:03.710Z,49.65
